sensor_id;sensor_type;location;lat;lon;timestamp;pressure;altitude;pressure_sealevel;temperature;humidity
54876;BME280;40764;48.472;8.166;2022-09-17T00:01:49;97964.94;;;12.36;82.12
54876;BME280;40764;48.472;8.166;2022-09-17T00:07:51;97968.31;;;12.10;80.23
54876;BME280;40764;48.472;8.166;2022-09-17T00:13:52;97961.94;;;12.15;79.73
54876;BME280;40764;48.472;8.166;2022-09-17T00:19:53;97966.25;;;11.94;78.86
54876;BME280;40764;48.472;8.166;2022-09-17T00:25:54;97971.03;;;11.74;77.71
54876;BME280;40764;48.472;8.166;2022-09-17T00:31:55;97961.75;;;11.62;77.51
54876;BME280;40764;48.472;8.166;2022-09-17T00:37:55;97964.94;;;11.41;79.11
54876;BME280;40764;48.472;8.166;2022-09-17T00:44:00;97970.50;;;11.36;81.38
54876;BME280;40764;48.472;8.166;2022-09-17T00:50:28;97951.47;;;11.17;83.57
54876;BME280;40764;48.472;8.166;2022-09-17T00:56:33;97959.75;;;11.26;83.15
54876;BME280;40764;48.472;8.166;2022-09-17T01:02:34;97961.59;;;11.17;83.96
54876;BME280;40764;48.472;8.166;2022-09-17T01:41:03;97986.03;;;11.13;83.07
54876;BME280;40764;48.472;8.166;2022-09-17T01:47:12;97990.91;;;11.03;84.00
54876;BME280;40764;48.472;8.166;2022-09-17T01:53:16;97984.91;;;11.28;83.74
54876;BME280;40764;48.472;8.166;2022-09-17T01:59:28;97987.25;;;11.35;83.54
54876;BME280;40764;48.472;8.166;2022-09-17T02:05:39;97986.31;;;11.26;83.92
54876;BME280;40764;48.472;8.166;2022-09-17T02:11:42;97995.25;;;11.04;84.89
54876;BME280;40764;48.472;8.166;2022-09-17T02:17:48;97997.78;;;11.28;84.05
54876;BME280;40764;48.472;8.166;2022-09-17T02:23:58;97992.91;;;11.11;84.74
54876;BME280;40764;48.472;8.166;2022-09-17T02:30:04;97998.06;;;11.26;84.68
54876;BME280;40764;48.472;8.166;2022-09-17T02:36:05;98001.00;;;10.89;86.95
54876;BME280;40764;48.472;8.166;2022-09-17T02:54:53;98002.13;;;11.15;85.51
54876;BME280;40764;48.472;8.166;2022-09-17T03:01:03;98012.56;;;11.13;85.98
54876;BME280;40764;48.472;8.166;2022-09-17T03:07:08;97999.16;;;10.84;87.58
54876;BME280;40764;48.472;8.166;2022-09-17T03:13:11;98008.59;;;10.78;87.92
54876;BME280;40764;48.472;8.166;2022-09-17T03:19:11;98007.38;;;10.98;86.01
54876;BME280;40764;48.472;8.166;2022-09-17T03:25:12;97995.84;;;11.01;86.62
54876;BME280;40764;48.472;8.166;2022-09-17T03:31:12;98008.69;;;10.73;87.98
54876;BME280;40764;48.472;8.166;2022-09-17T03:37:12;98017.81;;;10.82;88.90
54876;BME280;40764;48.472;8.166;2022-09-17T03:43:13;98019.44;;;10.97;88.39
54876;BME280;40764;48.472;8.166;2022-09-17T03:49:13;98019.84;;;10.90;88.59
54876;BME280;40764;48.472;8.166;2022-09-17T03:55:13;98026.19;;;10.72;88.77
54876;BME280;40764;48.472;8.166;2022-09-17T04:01:15;98037.03;;;10.77;87.78
54876;BME280;40764;48.472;8.166;2022-09-17T04:07:15;98044.34;;;10.81;87.32
54876;BME280;40764;48.472;8.166;2022-09-17T04:13:16;98038.06;;;10.95;86.78
54876;BME280;40764;48.472;8.166;2022-09-17T04:19:17;98037.28;;;11.08;85.68
54876;BME280;40764;48.472;8.166;2022-09-17T04:25:17;98047.16;;;10.76;85.86
54876;BME280;40764;48.472;8.166;2022-09-17T04:31:18;98045.16;;;10.96;85.34
54876;BME280;40764;48.472;8.166;2022-09-17T04:37:18;98056.41;;;10.94;85.17
54876;BME280;40764;48.472;8.166;2022-09-17T04:43:19;98055.06;;;10.78;85.23
54876;BME280;40764;48.472;8.166;2022-09-17T04:49:19;98065.06;;;11.01;84.30
54876;BME280;40764;48.472;8.166;2022-09-17T04:55:19;98065.13;;;10.96;84.48
54876;BME280;40764;48.472;8.166;2022-09-17T05:01:20;98069.78;;;10.96;83.98
54876;BME280;40764;48.472;8.166;2022-09-17T05:07:20;98080.72;;;10.63;84.32
54876;BME280;40764;48.472;8.166;2022-09-17T05:13:21;98077.56;;;10.56;86.60
54876;BME280;40764;48.472;8.166;2022-09-17T05:19:22;98082.19;;;10.74;86.38
54876;BME280;40764;48.472;8.166;2022-09-17T05:25:22;98076.34;;;10.95;83.31
54876;BME280;40764;48.472;8.166;2022-09-17T05:31:25;98087.44;;;10.71;84.90
54876;BME280;40764;48.472;8.166;2022-09-17T05:37:25;98081.91;;;10.76;84.37
54876;BME280;40764;48.472;8.166;2022-09-17T05:43:26;98100.81;;;10.72;85.73
54876;BME280;40764;48.472;8.166;2022-09-17T05:49:26;98113.38;;;10.73;86.61
54876;BME280;40764;48.472;8.166;2022-09-17T05:55:27;98113.28;;;10.78;87.40
54876;BME280;40764;48.472;8.166;2022-09-17T06:01:28;98104.44;;;11.00;85.23
54876;BME280;40764;48.472;8.166;2022-09-17T06:07:29;98112.81;;;10.90;83.12
54876;BME280;40764;48.472;8.166;2022-09-17T06:13:29;98105.69;;;11.08;83.47
54876;BME280;40764;48.472;8.166;2022-09-17T06:19:30;98109.47;;;10.93;81.96
54876;BME280;40764;48.472;8.166;2022-09-17T06:25:30;98110.28;;;10.94;83.07
54876;BME280;40764;48.472;8.166;2022-09-17T06:31:30;98115.31;;;11.05;82.89
54876;BME280;40764;48.472;8.166;2022-09-17T06:37:31;98119.44;;;11.03;82.18
54876;BME280;40764;48.472;8.166;2022-09-17T06:43:32;98125.34;;;11.10;82.38
54876;BME280;40764;48.472;8.166;2022-09-17T06:49:32;98139.47;;;10.98;82.63
54876;BME280;40764;48.472;8.166;2022-09-17T06:55:33;98134.66;;;10.76;82.81
54876;BME280;40764;48.472;8.166;2022-09-17T07:01:33;98138.63;;;10.65;83.85
54876;BME280;40764;48.472;8.166;2022-09-17T07:07:33;98143.97;;;10.57;83.40
54876;BME280;40764;48.472;8.166;2022-09-17T07:13:35;98146.75;;;10.89;82.75
54876;BME280;40764;48.472;8.166;2022-09-17T07:19:35;98158.19;;;10.91;82.48
54876;BME280;40764;48.472;8.166;2022-09-17T07:25:35;98163.22;;;11.03;81.96
54876;BME280;40764;48.472;8.166;2022-09-17T07:31:36;98170.50;;;10.75;83.62
54876;BME280;40764;48.472;8.166;2022-09-17T07:37:36;98170.72;;;10.60;84.23
54876;BME280;40764;48.472;8.166;2022-09-17T07:43:36;98164.44;;;10.59;84.62
54876;BME280;40764;48.472;8.166;2022-09-17T07:49:37;98164.84;;;10.85;83.02
54876;BME280;40764;48.472;8.166;2022-09-17T07:55:37;98181.34;;;10.80;83.38
54876;BME280;40764;48.472;8.166;2022-09-17T08:01:37;98178.81;;;10.65;84.66
54876;BME280;40764;48.472;8.166;2022-09-17T08:07:38;98201.69;;;10.74;85.62
54876;BME280;40764;48.472;8.166;2022-09-17T08:13:39;98201.47;;;10.70;85.43
54876;BME280;40764;48.472;8.166;2022-09-17T08:19:39;98201.66;;;10.93;84.87
54876;BME280;40764;48.472;8.166;2022-09-17T08:25:40;98201.88;;;10.96;84.92
54876;BME280;40764;48.472;8.166;2022-09-17T08:31:40;98210.44;;;10.90;85.41
54876;BME280;40764;48.472;8.166;2022-09-17T08:37:40;98204.16;;;10.89;85.84
54876;BME280;40764;48.472;8.166;2022-09-17T08:56:02;98231.81;;;11.06;85.06
54876;BME280;40764;48.472;8.166;2022-09-17T09:09:09;98231.81;;;11.06;84.47
54876;BME280;40764;48.472;8.166;2022-09-17T09:21:26;98232.66;;;11.21;83.73
54876;BME280;40764;48.472;8.166;2022-09-17T09:27:32;98223.84;;;11.24;83.20
54876;BME280;40764;48.472;8.166;2022-09-17T09:33:38;98226.41;;;11.66;82.33
54876;BME280;40764;48.472;8.166;2022-09-17T09:39:41;98237.94;;;11.49;83.46
54876;BME280;40764;48.472;8.166;2022-09-17T09:58:58;98237.00;;;11.54;82.21
54876;BME280;40764;48.472;8.166;2022-09-17T10:05:08;98235.91;;;11.88;81.05
54876;BME280;40764;48.472;8.166;2022-09-17T10:17:16;98242.41;;;12.05;79.82
54876;BME280;40764;48.472;8.166;2022-09-17T10:23:18;98231.75;;;11.90;80.05
54876;BME280;40764;48.472;8.166;2022-09-17T10:29:18;98224.59;;;11.62;80.86
54876;BME280;40764;48.472;8.166;2022-09-17T10:41:21;98231.97;;;11.61;83.00
54876;BME280;40764;48.472;8.166;2022-09-17T10:53:24;98230.66;;;11.59;88.38
54876;BME280;40764;48.472;8.166;2022-09-17T10:59:34;98242.94;;;11.61;89.63
54876;BME280;40764;48.472;8.166;2022-09-17T11:18:42;98231.16;;;13.20;76.17
54876;BME280;40764;48.472;8.166;2022-09-17T11:37:31;98211.75;;;14.01;73.59
54876;BME280;40764;48.472;8.166;2022-09-17T11:43:36;98198.00;;;14.01;72.79
54876;BME280;40764;48.472;8.166;2022-09-17T11:49:50;98187.44;;;14.25;69.91
54876;BME280;40764;48.472;8.166;2022-09-17T11:56:02;98179.03;;;14.39;68.14
54876;BME280;40764;48.472;8.166;2022-09-17T12:02:13;98182.91;;;14.30;65.58
54876;BME280;40764;48.472;8.166;2022-09-17T12:08:30;98170.72;;;14.13;66.92
54876;BME280;40764;48.472;8.166;2022-09-17T12:14:46;98166.47;;;13.99;67.85
54876;BME280;40764;48.472;8.166;2022-09-17T12:20:52;98175.91;;;13.67;70.39
54876;BME280;40764;48.472;8.166;2022-09-17T12:27:05;98164.78;;;13.18;72.52
54876;BME280;40764;48.472;8.166;2022-09-17T12:33:25;98164.28;;;13.39;72.55
54876;BME280;40764;48.472;8.166;2022-09-17T12:39:32;98170.94;;;13.24;73.99
54876;BME280;40764;48.472;8.166;2022-09-17T12:45:57;98165.06;;;13.17;74.90
54876;BME280;40764;48.472;8.166;2022-09-17T13:17:17;98177.44;;;12.69;84.86
54876;BME280;40764;48.472;8.166;2022-09-17T13:23:37;98176.50;;;12.52;87.64
54876;BME280;40764;48.472;8.166;2022-09-17T13:41:45;98176.75;;;12.14;90.75
54876;BME280;40764;48.472;8.166;2022-09-17T13:47:58;98166.31;;;11.89;90.93
54876;BME280;40764;48.472;8.166;2022-09-17T13:54:08;98173.25;;;12.36;90.26
54876;BME280;40764;48.472;8.166;2022-09-17T14:00:45;98184.16;;;12.99;88.56
54876;BME280;40764;48.472;8.166;2022-09-17T14:06:47;98172.38;;;13.21;87.35
54876;BME280;40764;48.472;8.166;2022-09-17T14:12:55;98168.50;;;13.76;86.17
54876;BME280;40764;48.472;8.166;2022-09-17T14:19:02;98152.75;;;13.06;88.23
54876;BME280;40764;48.472;8.166;2022-09-17T14:25:14;98151.78;;;13.10;88.56
54876;BME280;40764;48.472;8.166;2022-09-17T14:31:26;98138.88;;;12.88;88.87
54876;BME280;40764;48.472;8.166;2022-09-17T14:37:27;98130.72;;;12.75;88.83
54876;BME280;40764;48.472;8.166;2022-09-17T14:44:02;98124.53;;;12.69;88.66
54876;BME280;40764;48.472;8.166;2022-09-17T14:50:25;98130.34;;;12.90;87.85
54876;BME280;40764;48.472;8.166;2022-09-17T14:56:33;98142.88;;;12.82;87.29
54876;BME280;40764;48.472;8.166;2022-09-17T15:02:55;98136.56;;;12.59;87.56
54876;BME280;40764;48.472;8.166;2022-09-17T15:08:58;98120.81;;;12.29;90.33
54876;BME280;40764;48.472;8.166;2022-09-17T15:15:02;98164.56;;;12.06;93.73
54876;BME280;40764;48.472;8.166;2022-09-17T15:21:38;98133.75;;;12.01;89.34
54876;BME280;40764;48.472;8.166;2022-09-17T15:27:45;98144.28;;;12.21;87.35
54876;BME280;40764;48.472;8.166;2022-09-17T15:33:52;98130.97;;;12.28;86.56
54876;BME280;40764;48.472;8.166;2022-09-17T15:39:53;98161.56;;;11.94;90.82
54876;BME280;40764;48.472;8.166;2022-09-17T15:46:30;98139.34;;;11.96;91.33
54876;BME280;40764;48.472;8.166;2022-09-17T15:52:34;98138.28;;;11.64;92.73
54876;BME280;40764;48.472;8.166;2022-09-17T16:04:41;98146.56;;;11.32;93.01
54876;BME280;40764;48.472;8.166;2022-09-17T16:10:42;98196.81;;;11.68;92.50
54876;BME280;40764;48.472;8.166;2022-09-17T16:16:42;98187.81;;;11.82;89.25
54876;BME280;40764;48.472;8.166;2022-09-17T16:22:43;98175.53;;;11.79;90.07
54876;BME280;40764;48.472;8.166;2022-09-17T16:28:50;98181.97;;;11.56;93.35
54876;BME280;40764;48.472;8.166;2022-09-17T16:34:56;98180.78;;;11.62;92.84
54876;BME280;40764;48.472;8.166;2022-09-17T16:40:59;98181.59;;;11.62;94.63
54876;BME280;40764;48.472;8.166;2022-09-17T16:46:59;98217.03;;;11.54;95.62
54876;BME280;40764;48.472;8.166;2022-09-17T16:53:01;98228.75;;;11.59;94.14
54876;BME280;40764;48.472;8.166;2022-09-17T16:59:02;98225.44;;;11.43;96.31
54876;BME280;40764;48.472;8.166;2022-09-17T17:05:06;98221.19;;;11.51;96.89
54876;BME280;40764;48.472;8.166;2022-09-17T17:11:12;98238.13;;;11.53;96.95
54876;BME280;40764;48.472;8.166;2022-09-17T17:17:22;98234.63;;;11.66;95.35
54876;BME280;40764;48.472;8.166;2022-09-17T17:23:46;98239.09;;;11.62;93.28
54876;BME280;40764;48.472;8.166;2022-09-17T17:29:53;98240.00;;;11.71;92.32
54876;BME280;40764;48.472;8.166;2022-09-17T17:36:00;98237.16;;;11.63;93.00
54876;BME280;40764;48.472;8.166;2022-09-17T17:42:11;98234.38;;;11.49;92.46
54876;BME280;40764;48.472;8.166;2022-09-17T17:48:12;98242.19;;;11.56;91.83
54876;BME280;40764;48.472;8.166;2022-09-17T17:54:15;98249.13;;;11.67;91.06
54876;BME280;40764;48.472;8.166;2022-09-17T18:00:15;98257.44;;;11.62;93.12
54876;BME280;40764;48.472;8.166;2022-09-17T18:06:20;98255.16;;;11.50;95.50
54876;BME280;40764;48.472;8.166;2022-09-17T18:12:23;98273.09;;;11.42;96.06
54876;BME280;40764;48.472;8.166;2022-09-17T18:18:33;98265.75;;;11.70;95.21
54876;BME280;40764;48.472;8.166;2022-09-17T18:24:36;98272.16;;;11.66;93.80
54876;BME280;40764;48.472;8.166;2022-09-17T18:30:36;98288.53;;;11.85;90.88
54876;BME280;40764;48.472;8.166;2022-09-17T18:36:38;98305.56;;;11.82;91.16
54876;BME280;40764;48.472;8.166;2022-09-17T18:42:38;98311.25;;;11.85;88.92
54876;BME280;40764;48.472;8.166;2022-09-17T18:48:39;98324.06;;;11.90;88.95
54876;BME280;40764;48.472;8.166;2022-09-17T18:54:40;98333.84;;;11.77;89.31
54876;BME280;40764;48.472;8.166;2022-09-17T19:00:40;98341.94;;;11.49;91.81
54876;BME280;40764;48.472;8.166;2022-09-17T19:06:41;98346.69;;;11.44;90.54
54876;BME280;40764;48.472;8.166;2022-09-17T19:12:41;98358.38;;;11.49;90.33
54876;BME280;40764;48.472;8.166;2022-09-17T19:18:42;98366.97;;;11.43;89.93
54876;BME280;40764;48.472;8.166;2022-09-17T19:24:43;98372.22;;;11.58;87.98
54876;BME280;40764;48.472;8.166;2022-09-17T19:30:46;98363.47;;;11.56;88.25
54876;BME280;40764;48.472;8.166;2022-09-17T19:36:47;98372.22;;;11.39;90.37
54876;BME280;40764;48.472;8.166;2022-09-17T19:42:51;98368.38;;;11.40;89.91
54876;BME280;40764;48.472;8.166;2022-09-17T19:48:56;98370.13;;;11.50;88.75
54876;BME280;40764;48.472;8.166;2022-09-17T19:54:56;98376.19;;;11.47;87.94
54876;BME280;40764;48.472;8.166;2022-09-17T20:00:58;98380.56;;;11.67;88.34
54876;BME280;40764;48.472;8.166;2022-09-17T20:06:58;98386.34;;;11.65;87.05
54876;BME280;40764;48.472;8.166;2022-09-17T20:13:06;98376.28;;;11.61;86.90
54876;BME280;40764;48.472;8.166;2022-09-17T20:19:14;98376.13;;;11.71;85.89
54876;BME280;40764;48.472;8.166;2022-09-17T20:25:18;98380.94;;;11.79;85.64
54876;BME280;40764;48.472;8.166;2022-09-17T20:31:39;98378.91;;;11.85;85.39
54876;BME280;40764;48.472;8.166;2022-09-17T20:37:53;98390.41;;;11.68;85.03
54876;BME280;40764;48.472;8.166;2022-09-17T20:44:02;98377.53;;;11.68;84.34
54876;BME280;40764;48.472;8.166;2022-09-17T20:50:03;98369.03;;;11.51;87.40
54876;BME280;40764;48.472;8.166;2022-09-17T20:56:39;98371.97;;;11.55;85.45
54876;BME280;40764;48.472;8.166;2022-09-17T21:02:57;98386.63;;;11.64;85.66
54876;BME280;40764;48.472;8.166;2022-09-17T21:09:01;98400.53;;;11.48;87.89
54876;BME280;40764;48.472;8.166;2022-09-17T21:15:05;98407.25;;;11.75;85.72
54876;BME280;40764;48.472;8.166;2022-09-17T21:21:11;98413.13;;;11.68;83.88
54876;BME280;40764;48.472;8.166;2022-09-17T21:27:21;98410.59;;;11.72;84.36
54876;BME280;40764;48.472;8.166;2022-09-17T21:39:46;98417.19;;;11.52;85.69
54876;BME280;40764;48.472;8.166;2022-09-17T21:46:00;98423.78;;;11.51;85.90
54876;BME280;40764;48.472;8.166;2022-09-17T21:52:01;98421.31;;;11.49;87.92
54876;BME280;40764;48.472;8.166;2022-09-17T21:58:14;98419.19;;;11.46;88.59
54876;BME280;40764;48.472;8.166;2022-09-17T22:04:19;98418.97;;;11.43;88.69
54876;BME280;40764;48.472;8.166;2022-09-17T22:10:21;98418.00;;;11.34;89.85
54876;BME280;40764;48.472;8.166;2022-09-17T22:16:26;98415.34;;;11.29;91.28
54876;BME280;40764;48.472;8.166;2022-09-17T22:22:32;98418.78;;;11.15;92.21
54876;BME280;40764;48.472;8.166;2022-09-17T22:28:34;98423.75;;;11.13;91.90
54876;BME280;40764;48.472;8.166;2022-09-17T22:34:37;98427.28;;;11.14;92.21
54876;BME280;40764;48.472;8.166;2022-09-17T22:40:38;98430.53;;;11.16;92.86
54876;BME280;40764;48.472;8.166;2022-09-17T22:46:39;98425.63;;;11.37;92.44
54876;BME280;40764;48.472;8.166;2022-09-17T22:52:39;98425.91;;;11.35;92.48
54876;BME280;40764;48.472;8.166;2022-09-17T22:58:41;98421.03;;;11.32;91.55
54876;BME280;40764;48.472;8.166;2022-09-17T23:05:00;98427.53;;;11.55;90.14
54876;BME280;40764;48.472;8.166;2022-09-17T23:11:01;98425.09;;;11.35;89.19
54876;BME280;40764;48.472;8.166;2022-09-17T23:17:32;98420.22;;;11.32;88.69
54876;BME280;40764;48.472;8.166;2022-09-17T23:23:38;98426.22;;;11.53;87.41
54876;BME280;40764;48.472;8.166;2022-09-17T23:29:40;98428.66;;;11.35;87.82
54876;BME280;40764;48.472;8.166;2022-09-17T23:35:41;98428.44;;;11.32;87.92
54876;BME280;40764;48.472;8.166;2022-09-17T23:41:41;98434.13;;;11.35;88.47
54876;BME280;40764;48.472;8.166;2022-09-17T23:47:45;98431.19;;;11.32;88.32
54876;BME280;40764;48.472;8.166;2022-09-17T23:53:45;98435.31;;;11.29;89.10
54876;BME280;40764;48.472;8.166;2022-09-17T23:59:49;98434.53;;;11.24;88.12
